Allendale, MI

8:10 AM EST on December 22, 2014 (GMT -0500)
Gerald R. Ford International | Change Station
CLOSE
Current Station
Airport
Location: Grand Rapids,
Elevation: 804 ft
Nearby Weather Stations

Elev 804 ft 42.88 °N, 85.52 °W | Updated 17 minutes ago

Mostly Cloudy
Mostly Cloudy
26 °F
Feels Like 16 °F
N
10
Wind Variable Wind from ESE

Today
High -- | Low -- °F
--% Chance of Precip.
Yesterday
High -- | Low -- °F
Precip. -- in
8:12 AM 5:12 PM
New Moon, 0% visible
Pressure 30.07 in
Visibility 5.0 miles
Clouds Few 7500 ft
Mostly Cloudy 22000 ft
Windchill 16 °F
Dew Point 22 °F
Humidity 84%
Rainfall 0.00 in
Snow Depth Not available.
UV 0 out of 12
Pollen .10 out of 12
Air Quality Not available.
Flu Activity Not available.
METAR KGRR 221253Z 12009KT 5SM BR FEW075 BKN220 M03/M06 A3004 RMK AO2 SLP182 T10331056

More Conditions Fewer Conditions

Pressure 30.07 in
Visibility 5.0 miles
Clouds Few 7500 ft
Mostly Cloudy 22000 ft
Windchill 16 °F
Dew Point 22 °F
Humidity 84%
Rainfall 0.00 in
Snow Depth Not available.
UV 0 out of 12
Pollen .10 out of 12
Air Quality Not available.
Flu Activity Not available.
METAR KGRR 221253Z 12009KT 5SM BR FEW075 BKN220 M03/M06 A3004 RMK AO2 SLP182 T10331056

More Conditions Fewer Conditions

10-Day Weather Forecast

Almanac

Astronomy

Dec. 22, 2014 Rise Set
Actual Time
Civil Twilight
Nautical Twilight
Astronomical Twilight
Moon
Length of Visible Light
Length of Day
Tomorrow will be .
, % of the Moon is Illuminated

Today's Extremes

State Highs State Lows

Community

WunderPhotos

Upload Photos

1,779,597 photos uploaded!

WunderBlogs® & News

Nearby

Air Quality

  Air Quality AQ Index Pollutant
Not available.

Snow Depth

Station Depth Elevation

Earthquake Activity

City Distance Mag. Time & Date
Minimum magnitude displayed is 2.5.

Coastal Water Temperatures

Place Temperature

Nearby Weather Stations